Vindilis — FW3808 — position and weather

sailwx.info

Track history (hours):
 
Tides and Currents Weather Stations Pressure Air Temp Water Temp Dewpoint Dewpoint Depression Visibility Wind Speed Wind Dir Waves Ship Positions

Vindilis

Last reported at 2018-Jan-19 11:22 UTC. Time now 2018-Jan-19 11:38 UTC.
Position N 47°21' W 003°09'.

Length 48 m; draft 3 m.

Type: Passenger vessel. MMSI: 227003750.

Date/timePositionNaut miles runAvg speedWind from/ knotsBaromVisibWave heightAir tempDewpointWater temp
2018-Jan-19 11:22N 47°21' W 003°09'0 0.0
2018-Jan-19 11:00N 47°21' W 003°09'3 5.7
2018-Jan-19 10:30N 47°24' W 003°08'510.1
2018-Jan-19 10:00N 47°29' W 003°07'0 1.0
2018-Jan-19 09:30N 47°28' W 003°07'612.0
2018-Jan-19 09:00N 47°22' W 003°08'1 2.4
2018-Jan-19 08:25N 47°21' W 003°09'0 0.0
2018-Jan-19 08:00N 47°21' W 003°09'4 7.7
2018-Jan-19 07:30N 47°24' W 003°08'4 8.3
2018-Jan-19 07:00N 47°29' W 003°07'0 0.0
2018-Jan-19 06:30N 47°29' W 003°07'4 7.5
2018-Jan-19 06:00N 47°25' W 003°08'4 8.1
2018-Jan-19 05:30N 47°21' W 003°09'0 0.0
2018-Jan-19 04:58N 47°21' W 003°09'0 0.0
2018-Jan-18 19:37N 47°21' W 003°09'0 0.1
2018-Jan-18 19:29N 47°21' W 003°09'2 4.5
2018-Jan-18 19:00N 47°23' W 003°08'611.4
2018-Jan-18 18:30N 47°29' W 003°07'0 0.4
2018-Jan-18 18:00N 47°29' W 003°07'611.4
2018-Jan-18 17:30N 47°23' W 003°08'2 4.1
2018-Jan-18 17:00N 47°21' W 003°09'2 4.7
2018-Jan-18 16:30N 47°23' W 003°08'611.2
2018-Jan-18 16:00N 47°29' W 003°07'0 0.0
2018-Jan-18 15:30N 47°29' W 003°07'3 6.3
2018-Jan-18 15:00N 47°25' W 003°08'5 8.8
2018-Jan-18 14:28N 47°21' W 003°09'0 0.0
2018-Jan-18 13:58N 47°21' W 003°09'3 5.5
2018-Jan-18 13:30N 47°23' W 003°08'511.0
2018-Jan-18 13:00N 47°29' W 003°07'0 0.0
2018-Jan-18 12:30N 47°29' W 003°07'4 8.1
2018-Jan-18 12:00N 47°25' W 003°08'4 6.7
2018-Jan-18 11:26N 47°21' W 003°09'0 0.9
2018-Jan-18 11:00N 47°21' W 003°09'611.6
2018-Jan-18 10:30N 47°27' W 003°07'2 3.8
2018-Jan-18 10:00N 47°29' W 003°07'5 9.3
2018-Jan-18 09:30N 47°24' W 003°08'3 5.8
2018-Jan-18 08:57N 47°21' W 003°09'1 2.3
2018-Jan-18 08:30N 47°21' W 003°08'510.4
2018-Jan-18 08:00N 47°27' W 003°07'2 4.0
2018-Jan-18 07:30N 47°29' W 003°07'3 6.2
2018-Jan-18 07:00N 47°26' W 003°08'5 8.8
2018-Jan-18 06:28N 47°21' W 003°09'0 0.0
2018-Jan-18 06:00N 47°21' W 003°09'  
2018-Jan-12 15:00N 47°26' W 003°08'5 9.4
2018-Jan-12 14:30N 47°21' W 003°09'0 0.0
2018-Jan-12 13:57N 47°21' W 003°09'3 5.9
2018-Jan-12 13:30N 47°23' W 003°08'510.6
2018-Jan-12 13:00N 47°29' W 003°07'0 0.0
2018-Jan-12 12:30N 47°29' W 003°07'3 6.5
2018-Jan-12 12:00N 47°25' W 003°08'5 9.2
2018-Jan-12 11:30N 47°21' W 003°09'0 0.0
2018-Jan-12 10:47N 47°21' W 003°09'310.1
2018-Jan-12 10:30N 47°24' W 003°08'510.3
2018-Jan-12 10:00N 47°29' W 003°07'0 0.1
2018-Jan-12 09:30N 47°29' W 003°07'612.1
2018-Jan-12 09:00N 47°23' W 003°08'2 3.6
2018-Jan-12 08:30N 47°21' W 003°09'0 0.0
2018-Jan-12 07:59N 47°21' W 003°09'4 7.6
2018-Jan-12 07:30N 47°24' W 003°08'4 8.4
2018-Jan-12 07:00N 47°29' W 003°07'0 0.0
2018-Jan-12 06:30N 47°29' W 003°07'3 5.3
2018-Jan-12 06:00N 47°26' W 003°08'510.0
2018-Jan-12 05:29N 47°21' W 003°09'0 0.0
2018-Jan-12 05:00N 47°21' W 003°09'0 0.0
2018-Jan-11 19:47N 47°21' W 003°09'0 0.2
2018-Jan-11 19:30N 47°21' W 003°09'4 8.2
2018-Jan-11 19:00N 47°25' W 003°08'4 7.6
2018-Jan-11 18:30N 47°29' W 003°07'1 2.0
2018-Jan-11 18:01N 47°28' W 003°07'612.3
2018-Jan-11 17:30N 47°22' W 003°08'1 1.5
2018-Jan-11 16:58N 47°21' W 003°09'3 7.4
2018-Jan-11 16:30N 47°24' W 003°08'4 8.8
2018-Jan-11 16:00N 47°29' W 003°07'0 0.0
2018-Jan-11 15:31N 47°29' W 003°07'3 6.1
2018-Jan-11 15:01N 47°26' W 003°08'5 8.7
2018-Jan-11 14:27N 47°21' W 003°09'0 0.0
2018-Jan-11 13:58N 47°21' W 003°09'3 6.9
2018-Jan-11 13:30N 47°24' W 003°08'5 9.4
2018-Jan-11 13:01N 47°29' W 003°07'0 0.0
2018-Jan-11 12:31N 47°29' W 003°07'3 5.7
2018-Jan-11 12:01N 47°26' W 003°08'5 9.8
2018-Jan-11 11:30N 47°21' W 003°09'0 0.0
2018-Jan-11 10:59N 47°21' W 003°09'2 4.6
2018-Jan-11 10:31N 47°23' W 003°08'611.4
2018-Jan-11 10:01N 47°29' W 003°07'0 0.2
2018-Jan-11 09:30N 47°29' W 003°07'611.5
2018-Jan-11 08:59N 47°23' W 003°08'2 2.9
2018-Jan-11 08:20N 47°21' W 003°09'0 0.0
2018-Jan-11 08:00N 47°21' W 003°09'3 6.8
2018-Jan-11 07:30N 47°24' W 003°08'4 9.0
2018-Jan-11 07:00N 47°29' W 003°07'0 0.0
2018-Jan-11 06:31N 47°29' W 003°07'3 5.9
2018-Jan-11 06:01N 47°26' W 003°08'5 9.4
2018-Jan-11 05:29N 47°21' W 003°09'0 0.0
2018-Jan-11 05:00N 47°21' W 003°09'0 0.0
2018-Jan-10 19:39N 47°21' W 003°09'0 0.1
2018-Jan-10 19:31N 47°21' W 003°09'2 4.9
2018-Jan-10 19:00N 47°23' W 003°08'510.8
2018-Jan-10 18:30N 47°29' W 003°07'0 0.0
2018-Jan-10 18:00N 47°29' W 003°07'611.1
2018-Jan-10 17:30N 47°23' W 003°08'2 3.4
2018-Jan-10 16:50N 47°21' W 003°09'3 8.2
2018-Jan-10 16:30N 47°23' W 003°08'510.5
2018-Jan-10 16:00N 47°29' W 003°07'0 0.0
2018-Jan-10 15:30N 47°29' W 003°07'2 4.3
2018-Jan-10 15:00N 47°26' W 003°08'611.2
2018-Jan-10 14:30N 47°21' W 003°09'0 0.0
2018-Jan-10 14:00N 47°21' W 003°09'3 5.3
2018-Jan-10 13:30N 47°23' W 003°08'510.6
2018-Jan-10 13:00N 47°29' W 003°07'0 0.0
2018-Jan-10 12:30N 47°29' W 003°07'3 5.0
2018-Jan-10 12:00N 47°26' W 003°08'510.7
2018-Jan-10 11:30N 47°21' W 003°09'0 0.0
2018-Jan-10 11:00N 47°21' W 003°09'3 6.4
2018-Jan-10 10:30N 47°24' W 003°08'5 9.4
2018-Jan-10 10:00N 47°29' W 003°07'0 0.7
2018-Jan-10 09:30N 47°28' W 003°07'612.2
2018-Jan-10 09:00N 47°22' W 003°08'2 2.9
2018-Jan-10 08:28N 47°21' W 003°09'0 0.0
2018-Jan-10 08:00N 47°21' W 003°09'4 8.4
2018-Jan-10 07:30N 47°25' W 003°08'4 7.5
2018-Jan-10 07:00N 47°29' W 003°07'0 0.0
2018-Jan-10 06:30N 47°29' W 003°07'3 5.4
2018-Jan-10 06:00N 47°26' W 003°08'510.2
2018-Jan-10 05:30N 47°21' W 003°09'0 0.0
2018-Jan-10 05:00N 47°21' W 003°09'0 0.0
2018-Jan-09 19:39N 47°21' W 003°09'0 0.1
2018-Jan-09 19:30N 47°21' W 003°09'3 5.4
2018-Jan-09 19:00N 47°24' W 003°08'510.3
2018-Jan-09 18:30N 47°29' W 003°07'0 0.0
2018-Jan-09 18:00N 47°29' W 003°07'611.5
2018-Jan-09 17:30N 47°23' W 003°08'2 4.0
2018-Jan-09 16:59N 47°21' W 003°09'3 5.4
2018-Jan-09 16:30N 47°23' W 003°08'510.6
2018-Jan-09 16:00N 47°29' W 003°07'0 0.0
2018-Jan-09 15:30N 47°29' W 003°07'3 5.5
2018-Jan-09 15:00N 47°26' W 003°08'510.2
2018-Jan-09 14:30N 47°21' W 003°09'0 0.0
2018-Jan-09 13:59N 47°21' W 003°09'3 5.8
2018-Jan-09 13:30N 47°23' W 003°08'510.3
2018-Jan-09 13:00N 47°29' W 003°07'0 0.0
2018-Jan-09 12:30N 47°29' W 003°07'3 5.2
2018-Jan-09 12:00N 47°26' W 003°08'510.2
2018-Jan-09 11:29N 47°21' W 003°09'  
Track history (hours):
 
Tides and Currents Weather Stations Pressure Air Temp Water Temp Dewpoint Dewpoint Depression Visibility Wind Speed Wind Dir Waves Ship Positions

Vindilis

Last reported at 2018-Jan-19 11:22 UTC. Time now 2018-Jan-19 11:38 UTC.
Position N 47°21' W 003°09'.

Length 48 m; draft 3 m.

Type: Passenger vessel. MMSI: 227003750.

Date/timePositionNaut miles runAvg speedWind from/ knotsBaromVisibWave heightAir tempDewpointWater temp
2018-Jan-19 11:22N 47°21' W 003°09'0 0.0
2018-Jan-19 11:00N 47°21' W 003°09'3 5.7
2018-Jan-19 10:30N 47°24' W 003°08'510.1
2018-Jan-19 10:00N 47°29' W 003°07'0 1.0
2018-Jan-19 09:30N 47°28' W 003°07'612.0
2018-Jan-19 09:00N 47°22' W 003°08'1 2.4
2018-Jan-19 08:25N 47°21' W 003°09'0 0.0
2018-Jan-19 08:00N 47°21' W 003°09'4 7.7
2018-Jan-19 07:30N 47°24' W 003°08'4 8.3
2018-Jan-19 07:00N 47°29' W 003°07'0 0.0
2018-Jan-19 06:30N 47°29' W 003°07'4 7.5
2018-Jan-19 06:00N 47°25' W 003°08'4 8.1
2018-Jan-19 05:30N 47°21' W 003°09'0 0.0
2018-Jan-19 04:58N 47°21' W 003°09'0 0.0
2018-Jan-18 19:37N 47°21' W 003°09'0 0.1
2018-Jan-18 19:29N 47°21' W 003°09'2 4.5
2018-Jan-18 19:00N 47°23' W 003°08'611.4
2018-Jan-18 18:30N 47°29' W 003°07'0 0.4
2018-Jan-18 18:00N 47°29' W 003°07'611.4
2018-Jan-18 17:30N 47°23' W 003°08'2 4.1
2018-Jan-18 17:00N 47°21' W 003°09'2 4.7
2018-Jan-18 16:30N 47°23' W 003°08'611.2
2018-Jan-18 16:00N 47°29' W 003°07'0 0.0
2018-Jan-18 15:30N 47°29' W 003°07'3 6.3
2018-Jan-18 15:00N 47°25' W 003°08'5 8.8
2018-Jan-18 14:28N 47°21' W 003°09'0 0.0
2018-Jan-18 13:58N 47°21' W 003°09'3 5.5
2018-Jan-18 13:30N 47°23' W 003°08'511.0
2018-Jan-18 13:00N 47°29' W 003°07'0 0.0
2018-Jan-18 12:30N 47°29' W 003°07'4 8.1
2018-Jan-18 12:00N 47°25' W 003°08'4 6.7
2018-Jan-18 11:26N 47°21' W 003°09'0 0.9
2018-Jan-18 11:00N 47°21' W 003°09'611.6
2018-Jan-18 10:30N 47°27' W 003°07'2 3.8
2018-Jan-18 10:00N 47°29' W 003°07'5 9.3
2018-Jan-18 09:30N 47°24' W 003°08'3 5.8
2018-Jan-18 08:57N 47°21' W 003°09'1 2.3
2018-Jan-18 08:30N 47°21' W 003°08'510.4
2018-Jan-18 08:00N 47°27' W 003°07'2 4.0
2018-Jan-18 07:30N 47°29' W 003°07'3 6.2
2018-Jan-18 07:00N 47°26' W 003°08'5 8.8
2018-Jan-18 06:28N 47°21' W 003°09'0 0.0
2018-Jan-18 06:00N 47°21' W 003°09'  
2018-Jan-12 15:00N 47°26' W 003°08'5 9.4
2018-Jan-12 14:30N 47°21' W 003°09'0 0.0
2018-Jan-12 13:57N 47°21' W 003°09'3 5.9
2018-Jan-12 13:30N 47°23' W 003°08'510.6
2018-Jan-12 13:00N 47°29' W 003°07'0 0.0
2018-Jan-12 12:30N 47°29' W 003°07'3 6.5
2018-Jan-12 12:00N 47°25' W 003°08'5 9.2
2018-Jan-12 11:30N 47°21' W 003°09'0 0.0
2018-Jan-12 10:47N 47°21' W 003°09'310.1
2018-Jan-12 10:30N 47°24' W 003°08'510.3
2018-Jan-12 10:00N 47°29' W 003°07'0 0.1
2018-Jan-12 09:30N 47°29' W 003°07'612.1
2018-Jan-12 09:00N 47°23' W 003°08'2 3.6
2018-Jan-12 08:30N 47°21' W 003°09'0 0.0
2018-Jan-12 07:59N 47°21' W 003°09'4 7.6
2018-Jan-12 07:30N 47°24' W 003°08'4 8.4
2018-Jan-12 07:00N 47°29' W 003°07'0 0.0
2018-Jan-12 06:30N 47°29' W 003°07'3 5.3
2018-Jan-12 06:00N 47°26' W 003°08'510.0
2018-Jan-12 05:29N 47°21' W 003°09'0 0.0
2018-Jan-12 05:00N 47°21' W 003°09'0 0.0
2018-Jan-11 19:47N 47°21' W 003°09'0 0.2
2018-Jan-11 19:30N 47°21' W 003°09'4 8.2
2018-Jan-11 19:00N 47°25' W 003°08'4 7.6
2018-Jan-11 18:30N 47°29' W 003°07'1 2.0
2018-Jan-11 18:01N 47°28' W 003°07'612.3
2018-Jan-11 17:30N 47°22' W 003°08'1 1.5
2018-Jan-11 16:58N 47°21' W 003°09'3 7.4
2018-Jan-11 16:30N 47°24' W 003°08'4 8.8
2018-Jan-11 16:00N 47°29' W 003°07'0 0.0
2018-Jan-11 15:31N 47°29' W 003°07'3 6.1
2018-Jan-11 15:01N 47°26' W 003°08'5 8.7
2018-Jan-11 14:27N 47°21' W 003°09'0 0.0
2018-Jan-11 13:58N 47°21' W 003°09'3 6.9
2018-Jan-11 13:30N 47°24' W 003°08'5 9.4
2018-Jan-11 13:01N 47°29' W 003°07'0 0.0
2018-Jan-11 12:31N 47°29' W 003°07'3 5.7
2018-Jan-11 12:01N 47°26' W 003°08'5 9.8
2018-Jan-11 11:30N 47°21' W 003°09'0 0.0
2018-Jan-11 10:59N 47°21' W 003°09'2 4.6
2018-Jan-11 10:31N 47°23' W 003°08'611.4
2018-Jan-11 10:01N 47°29' W 003°07'0 0.2
2018-Jan-11 09:30N 47°29' W 003°07'611.5
2018-Jan-11 08:59N 47°23' W 003°08'2 2.9
2018-Jan-11 08:20N 47°21' W 003°09'0 0.0
2018-Jan-11 08:00N 47°21' W 003°09'3 6.8
2018-Jan-11 07:30N 47°24' W 003°08'4 9.0
2018-Jan-11 07:00N 47°29' W 003°07'0 0.0
2018-Jan-11 06:31N 47°29' W 003°07'3 5.9
2018-Jan-11 06:01N 47°26' W 003°08'5 9.4
2018-Jan-11 05:29N 47°21' W 003°09'0 0.0
2018-Jan-11 05:00N 47°21' W 003°09'0 0.0
2018-Jan-10 19:39N 47°21' W 003°09'0 0.1
2018-Jan-10 19:31N 47°21' W 003°09'2 4.9
2018-Jan-10 19:00N 47°23' W 003°08'510.8
2018-Jan-10 18:30N 47°29' W 003°07'0 0.0
2018-Jan-10 18:00N 47°29' W 003°07'611.1
2018-Jan-10 17:30N 47°23' W 003°08'2 3.4
2018-Jan-10 16:50N 47°21' W 003°09'3 8.2
2018-Jan-10 16:30N 47°23' W 003°08'510.5
2018-Jan-10 16:00N 47°29' W 003°07'0 0.0
2018-Jan-10 15:30N 47°29' W 003°07'2 4.3
2018-Jan-10 15:00N 47°26' W 003°08'611.2
2018-Jan-10 14:30N 47°21' W 003°09'0 0.0
2018-Jan-10 14:00N 47°21' W 003°09'3 5.3
2018-Jan-10 13:30N 47°23' W 003°08'510.6
2018-Jan-10 13:00N 47°29' W 003°07'0 0.0
2018-Jan-10 12:30N 47°29' W 003°07'3 5.0
2018-Jan-10 12:00N 47°26' W 003°08'510.7
2018-Jan-10 11:30N 47°21' W 003°09'0 0.0
2018-Jan-10 11:00N 47°21' W 003°09'3 6.4
2018-Jan-10 10:30N 47°24' W 003°08'5 9.4
2018-Jan-10 10:00N 47°29' W 003°07'0 0.7
2018-Jan-10 09:30N 47°28' W 003°07'612.2
2018-Jan-10 09:00N 47°22' W 003°08'2 2.9
2018-Jan-10 08:28N 47°21' W 003°09'0 0.0
2018-Jan-10 08:00N 47°21' W 003°09'4 8.4
2018-Jan-10 07:30N 47°25' W 003°08'4 7.5
2018-Jan-10 07:00N 47°29' W 003°07'0 0.0
2018-Jan-10 06:30N 47°29' W 003°07'3 5.4
2018-Jan-10 06:00N 47°26' W 003°08'510.2
2018-Jan-10 05:30N 47°21' W 003°09'0 0.0
2018-Jan-10 05:00N 47°21' W 003°09'0 0.0
2018-Jan-09 19:39N 47°21' W 003°09'0 0.1
2018-Jan-09 19:30N 47°21' W 003°09'3 5.4
2018-Jan-09 19:00N 47°24' W 003°08'510.3
2018-Jan-09 18:30N 47°29' W 003°07'0 0.0
2018-Jan-09 18:00N 47°29' W 003°07'611.5
2018-Jan-09 17:30N 47°23' W 003°08'2 4.0
2018-Jan-09 16:59N 47°21' W 003°09'3 5.4
2018-Jan-09 16:30N 47°23' W 003°08'510.6
2018-Jan-09 16:00N 47°29' W 003°07'0 0.0
2018-Jan-09 15:30N 47°29' W 003°07'3 5.5
2018-Jan-09 15:00N 47°26' W 003°08'510.2
2018-Jan-09 14:30N 47°21' W 003°09'0 0.0
2018-Jan-09 13:59N 47°21' W 003°09'3 5.8
2018-Jan-09 13:30N 47°23' W 003°08'510.3
2018-Jan-09 13:00N 47°29' W 003°07'0 0.0
2018-Jan-09 12:30N 47°29' W 003°07'3 5.2
2018-Jan-09 12:00N 47°26' W 003°08'510.2
2018-Jan-09 11:29N 47°21' W 003°09'  

Dump ship's entire track history